sensor_id;sensor_type;location;lat;lon;timestamp;pressure;altitude;pressure_sealevel;temperature
72236;BMP280;60146;52.498;13.462;2023-04-15T00:01:07;100334.69;;;10.99
72236;BMP280;60146;52.498;13.462;2023-04-15T00:03:34;100325.75;;;11.00
72236;BMP280;60146;52.498;13.462;2023-04-15T00:05:59;100323.25;;;10.96
72236;BMP280;60146;52.498;13.462;2023-04-15T00:08:25;100328.50;;;10.96
72236;BMP280;60146;52.498;13.462;2023-04-15T00:10:51;100324.78;;;10.96
72236;BMP280;60146;52.498;13.462;2023-04-15T00:13:17;100319.72;;;11.00
72236;BMP280;60146;52.498;13.462;2023-04-15T00:15:42;100317.19;;;10.95
72236;BMP280;60146;52.498;13.462;2023-04-15T00:18:08;100310.69;;;10.93
72236;BMP280;60146;52.498;13.462;2023-04-15T00:20:33;100319.03;;;10.95
72236;BMP280;60146;52.498;13.462;2023-04-15T00:22:59;100316.41;;;10.95
72236;BMP280;60146;52.498;13.462;2023-04-15T00:25:25;100311.75;;;10.92
72236;BMP280;60146;52.498;13.462;2023-04-15T00:27:50;100307.78;;;10.94
72236;BMP280;60146;52.498;13.462;2023-04-15T00:30:16;100317.41;;;10.98
72236;BMP280;60146;52.498;13.462;2023-04-15T00:32:41;100314.19;;;11.01
72236;BMP280;60146;52.498;13.462;2023-04-15T00:35:07;100306.34;;;11.01
72236;BMP280;60146;52.498;13.462;2023-04-15T00:37:33;100313.72;;;10.99
72236;BMP280;60146;52.498;13.462;2023-04-15T00:39:59;100312.56;;;11.05
72236;BMP280;60146;52.498;13.462;2023-04-15T00:42:25;100309.72;;;11.02
72236;BMP280;60146;52.498;13.462;2023-04-15T00:44:50;100308.19;;;11.01
72236;BMP280;60146;52.498;13.462;2023-04-15T00:47:16;100308.47;;;10.99
72236;BMP280;60146;52.498;13.462;2023-04-15T00:49:42;100309.44;;;11.03
72236;BMP280;60146;52.498;13.462;2023-04-15T00:52:07;100307.88;;;11.02
72236;BMP280;60146;52.498;13.462;2023-04-15T00:54:33;100297.41;;;11.02
72236;BMP280;60146;52.498;13.462;2023-04-15T00:56:58;100292.63;;;11.04
72236;BMP280;60146;52.498;13.462;2023-04-15T00:59:24;100293.91;;;11.07
72236;BMP280;60146;52.498;13.462;2023-04-15T01:01:50;100291.09;;;11.03
72236;BMP280;60146;52.498;13.462;2023-04-15T01:04:16;100291.78;;;11.09
72236;BMP280;60146;52.498;13.462;2023-04-15T01:06:41;100299.53;;;11.00
72236;BMP280;60146;52.498;13.462;2023-04-15T01:09:07;100282.44;;;11.03
72236;BMP280;60146;52.498;13.462;2023-04-15T01:11:32;100286.63;;;11.04
72236;BMP280;60146;52.498;13.462;2023-04-15T01:13:58;100288.47;;;11.03
72236;BMP280;60146;52.498;13.462;2023-04-15T01:16:24;100281.38;;;11.04
72236;BMP280;60146;52.498;13.462;2023-04-15T01:18:51;100289.53;;;11.02
72236;BMP280;60146;52.498;13.462;2023-04-15T01:21:17;100286.53;;;10.96
72236;BMP280;60146;52.498;13.462;2023-04-15T01:23:43;100283.81;;;11.00
72236;BMP280;60146;52.498;13.462;2023-04-15T01:26:11;100277.22;;;11.03
72236;BMP280;60146;52.498;13.462;2023-04-15T01:28:36;100282.06;;;11.09
72236;BMP280;60146;52.498;13.462;2023-04-15T01:31:12;100279.34;;;11.01
72236;BMP280;60146;52.498;13.462;2023-04-15T01:33:39;100275.16;;;11.00
72236;BMP280;60146;52.498;13.462;2023-04-15T01:36:05;100276.72;;;11.01
72236;BMP280;60146;52.498;13.462;2023-04-15T01:38:32;100278.94;;;10.94
72236;BMP280;60146;52.498;13.462;2023-04-15T01:40:58;100270.81;;;10.96
72236;BMP280;60146;52.498;13.462;2023-04-15T01:43:24;100277.50;;;11.01
72236;BMP280;60146;52.498;13.462;2023-04-15T01:45:49;100280.69;;;10.98
72236;BMP280;60146;52.498;13.462;2023-04-15T01:48:15;100276.06;;;10.96
72236;BMP280;60146;52.498;13.462;2023-04-15T01:50:41;100274.22;;;10.96
72236;BMP280;60146;52.498;13.462;2023-04-15T01:53:07;100269.63;;;11.01
72236;BMP280;60146;52.498;13.462;2023-04-15T01:55:32;100277.59;;;10.96
72236;BMP280;60146;52.498;13.462;2023-04-15T01:57:58;100270.22;;;10.98
72236;BMP280;60146;52.498;13.462;2023-04-15T02:00:23;100271.19;;;11.02
72236;BMP280;60146;52.498;13.462;2023-04-15T02:02:49;100271.19;;;11.02
72236;BMP280;60146;52.498;13.462;2023-04-15T02:05:14;100271.75;;;10.99
72236;BMP280;60146;52.498;13.462;2023-04-15T02:07:41;100271.19;;;11.02
72236;BMP280;60146;52.498;13.462;2023-04-15T02:10:08;100267.88;;;10.97
72236;BMP280;60146;52.498;13.462;2023-04-15T02:12:33;100264.97;;;10.98
72236;BMP280;60146;52.498;13.462;2023-04-15T02:14:58;100269.16;;;10.99
72236;BMP280;60146;52.498;13.462;2023-04-15T02:17:24;100269.16;;;10.99
72236;BMP280;60146;52.498;13.462;2023-04-15T02:19:49;100269.16;;;10.99
72236;BMP280;60146;52.498;13.462;2023-04-15T02:22:14;100272.53;;;11.00
72236;BMP280;60146;52.498;13.462;2023-04-15T02:24:43;100268.06;;;11.00
72236;BMP280;60146;52.498;13.462;2023-04-15T02:27:08;100257.59;;;11.00
72236;BMP280;60146;52.498;13.462;2023-04-15T02:29:34;100265.44;;;11.00
72236;BMP280;60146;52.498;13.462;2023-04-15T02:31:59;100265.56;;;10.96
72236;BMP280;60146;52.498;13.462;2023-04-15T02:34:24;100260.22;;;11.00
72236;BMP280;60146;52.498;13.462;2023-04-15T02:36:51;100264.38;;;11.01
72236;BMP280;60146;52.498;13.462;2023-04-15T02:39:21;100262.06;;;11.00
72236;BMP280;60146;52.498;13.462;2023-04-15T02:41:46;100265.94;;;11.02
72236;BMP280;60146;52.498;13.462;2023-04-15T02:44:16;100263.22;;;11.07
72236;BMP280;60146;52.498;13.462;2023-04-15T02:46:43;100268.19;;;11.09
72236;BMP280;60146;52.498;13.462;2023-04-15T02:49:08;100280.41;;;11.13
72236;BMP280;60146;52.498;13.462;2023-04-15T02:51:35;100275.94;;;11.14
72236;BMP280;60146;52.498;13.462;2023-04-15T02:54:00;100272.16;;;11.19
72236;BMP280;60146;52.498;13.462;2023-04-15T02:56:25;100275.66;;;11.15
72236;BMP280;60146;52.498;13.462;2023-04-15T02:58:51;100270.97;;;11.12
72236;BMP280;60146;52.498;13.462;2023-04-15T03:01:20;100278.56;;;11.14
72236;BMP280;60146;52.498;13.462;2023-04-15T03:03:46;100282.94;;;11.18
72236;BMP280;60146;52.498;13.462;2023-04-15T03:06:11;100282.00;;;11.14
72236;BMP280;60146;52.498;13.462;2023-04-15T03:08:37;100273.06;;;11.15
72236;BMP280;60146;52.498;13.462;2023-04-15T03:11:02;100282.00;;;11.14
72236;BMP280;60146;52.498;13.462;2023-04-15T03:13:28;100277.69;;;11.18
72236;BMP280;60146;52.498;13.462;2023-04-15T03:15:54;100276.81;;;11.22
72236;BMP280;60146;52.498;13.462;2023-04-15T03:18:19;100278.38;;;11.23
72236;BMP280;60146;52.498;13.462;2023-04-15T03:20:44;100275.75;;;11.23
72236;BMP280;60146;52.498;13.462;2023-04-15T03:23:10;100291.69;;;11.27
72236;BMP280;60146;52.498;13.462;2023-04-15T03:25:35;100283.03;;;11.26
72236;BMP280;60146;52.498;13.462;2023-04-15T03:28:02;100273.31;;;11.27
72236;BMP280;60146;52.498;13.462;2023-04-15T03:30:27;100280.13;;;11.28
72236;BMP280;60146;52.498;13.462;2023-04-15T03:32:53;100279.84;;;11.29
72236;BMP280;60146;52.498;13.462;2023-04-15T03:35:18;100281.69;;;11.29
72236;BMP280;60146;52.498;13.462;2023-04-15T03:37:43;100278.00;;;11.30
72236;BMP280;60146;52.498;13.462;2023-04-15T03:40:09;100280.63;;;11.30
72236;BMP280;60146;52.498;13.462;2023-04-15T03:42:35;100276.34;;;11.34
72236;BMP280;60146;52.498;13.462;2023-04-15T03:45:00;100272.66;;;11.35
72236;BMP280;60146;52.498;13.462;2023-04-15T03:47:25;100274.28;;;11.31
72236;BMP280;60146;52.498;13.462;2023-04-15T03:49:51;100271.69;;;11.31
72236;BMP280;60146;52.498;13.462;2023-04-15T03:52:16;100283.22;;;11.30
72236;BMP280;60146;52.498;13.462;2023-04-15T03:54:41;100276.91;;;11.31
72236;BMP280;60146;52.498;13.462;2023-04-15T03:57:07;100275.84;;;11.32
72236;BMP280;60146;52.498;13.462;2023-04-15T03:59:32;100284.22;;;11.34
72236;BMP280;60146;52.498;13.462;2023-04-15T04:01:58;100282.84;;;11.36
72236;BMP280;60146;52.498;13.462;2023-04-15T04:04:23;100281.28;;;11.35
72236;BMP280;60146;52.498;13.462;2023-04-15T04:06:49;100287.31;;;11.36
72236;BMP280;60146;52.498;13.462;2023-04-15T04:09:14;100288.75;;;11.41
72236;BMP280;60146;52.498;13.462;2023-04-15T04:11:39;100289.81;;;11.40
72236;BMP280;60146;52.498;13.462;2023-04-15T04:14:05;100282.72;;;11.41
72236;BMP280;60146;52.498;13.462;2023-04-15T04:16:30;100287.91;;;11.46
72236;BMP280;60146;52.498;13.462;2023-04-15T04:18:56;100289.75;;;11.45
72236;BMP280;60146;52.498;13.462;2023-04-15T04:21:21;100282.47;;;11.42
72236;BMP280;60146;52.498;13.462;2023-04-15T04:23:46;100288.47;;;11.56
72236;BMP280;60146;52.498;13.462;2023-04-15T04:26:12;100290.13;;;11.52
72236;BMP280;60146;52.498;13.462;2023-04-15T04:28:37;100289.53;;;11.55
72236;BMP280;60146;52.498;13.462;2023-04-15T04:31:05;100290.59;;;11.54
72236;BMP280;60146;52.498;13.462;2023-04-15T04:33:31;100290.78;;;11.57
72236;BMP280;60146;52.498;13.462;2023-04-15T04:35:57;100287.88;;;11.59
72236;BMP280;60146;52.498;13.462;2023-04-15T04:38:22;100288.84;;;11.63
72236;BMP280;60146;52.498;13.462;2023-04-15T04:40:48;100285.69;;;11.61
72236;BMP280;60146;52.498;13.462;2023-04-15T04:43:13;100289.03;;;11.66
72236;BMP280;60146;52.498;13.462;2023-04-15T04:45:40;100292.91;;;11.69
72236;BMP280;60146;52.498;13.462;2023-04-15T04:48:05;100290.88;;;11.66
72236;BMP280;60146;52.498;13.462;2023-04-15T04:50:33;100304.94;;;11.70
72236;BMP280;60146;52.498;13.462;2023-04-15T04:52:59;100296.03;;;11.71
72236;BMP280;60146;52.498;13.462;2023-04-15T04:55:25;100303.41;;;11.69
72236;BMP280;60146;52.498;13.462;2023-04-15T04:57:51;100298.25;;;11.77
72236;BMP280;60146;52.498;13.462;2023-04-15T05:00:17;100300.69;;;11.74
72236;BMP280;60146;52.498;13.462;2023-04-15T05:02:43;100307.38;;;11.79
72236;BMP280;60146;52.498;13.462;2023-04-15T05:05:09;100302.50;;;11.86
72236;BMP280;60146;52.498;13.462;2023-04-15T05:07:36;100306.78;;;11.82
72236;BMP280;60146;52.498;13.462;2023-04-15T05:10:02;100316.69;;;11.85
72236;BMP280;60146;52.498;13.462;2023-04-15T05:12:28;100316.22;;;11.83
72236;BMP280;60146;52.498;13.462;2023-04-15T05:14:53;100312.91;;;11.91
72236;BMP280;60146;52.498;13.462;2023-04-15T05:17:18;100309.31;;;11.87
72236;BMP280;60146;52.498;13.462;2023-04-15T05:19:44;100312.53;;;11.84
72236;BMP280;60146;52.498;13.462;2023-04-15T05:22:09;100313.25;;;11.98
72236;BMP280;60146;52.498;13.462;2023-04-15T05:24:35;100316.16;;;11.97
72236;BMP280;60146;52.498;13.462;2023-04-15T05:27:00;100314.84;;;11.99
72236;BMP280;60146;52.498;13.462;2023-04-15T05:29:26;100317.16;;;12.00
72236;BMP280;60146;52.498;13.462;2023-04-15T05:31:51;100323.84;;;12.06
72236;BMP280;60146;52.498;13.462;2023-04-15T05:34:16;100329.88;;;12.07
72236;BMP280;60146;52.498;13.462;2023-04-15T05:36:42;100324.63;;;12.07
72236;BMP280;60146;52.498;13.462;2023-04-15T05:39:07;100332.97;;;12.09
72236;BMP280;60146;52.498;13.462;2023-04-15T05:41:33;100321.66;;;12.08
72236;BMP280;60146;52.498;13.462;2023-04-15T05:43:58;100328.50;;;12.09
72236;BMP280;60146;52.498;13.462;2023-04-15T05:46:24;100325.59;;;12.11
72236;BMP280;60146;52.498;13.462;2023-04-15T05:48:49;100317.28;;;12.17
72236;BMP280;60146;52.498;13.462;2023-04-15T05:51:14;100322.91;;;12.24
72236;BMP280;60146;52.498;13.462;2023-04-15T05:53:40;100314.72;;;12.25
72236;BMP280;60146;52.498;13.462;2023-04-15T05:56:06;100319.16;;;12.38
72236;BMP280;60146;52.498;13.462;2023-04-15T05:58:31;100319.50;;;12.45
72236;BMP280;60146;52.498;13.462;2023-04-15T06:00:57;100324.16;;;12.48
72236;BMP280;60146;52.498;13.462;2023-04-15T06:03:22;100312.59;;;12.49
72236;BMP280;60146;52.498;13.462;2023-04-15T06:05:47;100321.88;;;12.46
72236;BMP280;60146;52.498;13.462;2023-04-15T06:08:13;100322.91;;;12.45
72236;BMP280;60146;52.498;13.462;2023-04-15T06:10:38;100313.84;;;12.51
72236;BMP280;60146;52.498;13.462;2023-04-15T06:13:06;100314.97;;;12.58
72236;BMP280;60146;52.498;13.462;2023-04-15T06:15:32;100316.38;;;12.64
72236;BMP280;60146;52.498;13.462;2023-04-15T06:17:57;100310.38;;;12.72
72236;BMP280;60146;52.498;13.462;2023-04-15T06:20:23;100311.59;;;12.66
72236;BMP280;60146;52.498;13.462;2023-04-15T06:22:48;100314.00;;;12.76
72236;BMP280;60146;52.498;13.462;2023-04-15T06:25:14;100317.53;;;12.80
72236;BMP280;60146;52.498;13.462;2023-04-15T06:27:39;100318.53;;;12.92
72236;BMP280;60146;52.498;13.462;2023-04-15T06:30:06;100314.03;;;12.93
72236;BMP280;60146;52.498;13.462;2023-04-15T06:32:32;100316.09;;;12.96
72236;BMP280;60146;52.498;13.462;2023-04-15T06:34:58;100315.66;;;13.10
72236;BMP280;60146;52.498;13.462;2023-04-15T06:37:27;100322.34;;;13.16
72236;BMP280;60146;52.498;13.462;2023-04-15T06:39:52;100322.69;;;13.23
72236;BMP280;60146;52.498;13.462;2023-04-15T06:42:18;100330.78;;;13.35
72236;BMP280;60146;52.498;13.462;2023-04-15T06:44:43;100334.50;;;13.34
72236;BMP280;60146;52.498;13.462;2023-04-15T06:47:08;100337.47;;;13.40
72236;BMP280;60146;52.498;13.462;2023-04-15T06:49:34;100341.38;;;13.51
72236;BMP280;60146;52.498;13.462;2023-04-15T06:52:00;100336.56;;;13.45
72236;BMP280;60146;52.498;13.462;2023-04-15T06:54:25;100343.72;;;13.61
72236;BMP280;60146;52.498;13.462;2023-04-15T06:56:51;100340.31;;;13.60
72236;BMP280;60146;52.498;13.462;2023-04-15T06:59:17;100346.44;;;13.39
72236;BMP280;60146;52.498;13.462;2023-04-15T07:01:43;100346.34;;;13.69
72236;BMP280;60146;52.498;13.462;2023-04-15T07:04:08;100347.59;;;13.72
72236;BMP280;60146;52.498;13.462;2023-04-15T07:06:33;100357.53;;;13.75
72236;BMP280;60146;52.498;13.462;2023-04-15T07:09:00;100363.53;;;13.75
72236;BMP280;60146;52.498;13.462;2023-04-15T07:11:25;100350.88;;;13.69
72236;BMP280;60146;52.498;13.462;2023-04-15T07:13:51;100360.78;;;13.72
72236;BMP280;60146;52.498;13.462;2023-04-15T07:16:16;100370.19;;;13.56
72236;BMP280;60146;52.498;13.462;2023-04-15T07:18:42;100364.31;;;13.51
72236;BMP280;60146;52.498;13.462;2023-04-15T07:21:08;100366.16;;;13.50
72236;BMP280;60146;52.498;13.462;2023-04-15T07:23:33;100371.09;;;13.43
72236;BMP280;60146;52.498;13.462;2023-04-15T07:25:59;100375.13;;;13.57
72236;BMP280;60146;52.498;13.462;2023-04-15T07:28:24;100375.72;;;13.46
72236;BMP280;60146;52.498;13.462;2023-04-15T07:30:49;100383.28;;;13.39
72236;BMP280;60146;52.498;13.462;2023-04-15T07:33:15;100384.63;;;13.29
72236;BMP280;60146;52.498;13.462;2023-04-15T07:35:40;100379.94;;;13.17
72236;BMP280;60146;52.498;13.462;2023-04-15T07:38:05;100389.97;;;13.07
72236;BMP280;60146;52.498;13.462;2023-04-15T07:40:31;100397.84;;;13.07
72236;BMP280;60146;52.498;13.462;2023-04-15T07:42:56;100386.25;;;13.08
72236;BMP280;60146;52.498;13.462;2023-04-15T07:45:22;100384.34;;;13.00
72236;BMP280;60146;52.498;13.462;2023-04-15T07:47:48;100396.81;;;12.87
72236;BMP280;60146;52.498;13.462;2023-04-15T07:50:14;100391.53;;;12.87
72236;BMP280;60146;52.498;13.462;2023-04-15T07:52:41;100395.72;;;12.88
72236;BMP280;60146;52.498;13.462;2023-04-15T07:55:07;100393.88;;;12.88
72236;BMP280;60146;52.498;13.462;2023-04-15T07:57:36;100392.94;;;12.84
72236;BMP280;60146;52.498;13.462;2023-04-15T08:00:03;100399.91;;;12.89
72236;BMP280;60146;52.498;13.462;2023-04-15T08:02:31;100400.34;;;12.91
72236;BMP280;60146;52.498;13.462;2023-04-15T08:04:57;100401.81;;;12.97
72236;BMP280;60146;52.498;13.462;2023-04-15T08:07:23;100402.25;;;12.90
72236;BMP280;60146;52.498;13.462;2023-04-15T08:09:49;100405.50;;;12.74
72236;BMP280;60146;52.498;13.462;2023-04-15T08:12:14;100404.81;;;12.82
72236;BMP280;60146;52.498;13.462;2023-04-15T08:14:40;100408.25;;;12.91
72236;BMP280;60146;52.498;13.462;2023-04-15T08:17:05;100415.91;;;12.79
72236;BMP280;60146;52.498;13.462;2023-04-15T08:19:31;100410.00;;;12.74
72236;BMP280;60146;52.498;13.462;2023-04-15T08:21:56;100410.50;;;12.76
72236;BMP280;60146;52.498;13.462;2023-04-15T08:24:23;100416.03;;;12.74
72236;BMP280;60146;52.498;13.462;2023-04-15T08:26:48;100415.00;;;12.75
72236;BMP280;60146;52.498;13.462;2023-04-15T08:29:13;100413.91;;;12.76
72236;BMP280;60146;52.498;13.462;2023-04-15T08:31:39;100416.75;;;12.88
72236;BMP280;60146;52.498;13.462;2023-04-15T08:34:04;100415.31;;;12.82
72236;BMP280;60146;52.498;13.462;2023-04-15T08:36:30;100422.13;;;12.83
72236;BMP280;60146;52.498;13.462;2023-04-15T08:38:56;100422.31;;;12.86
72236;BMP280;60146;52.498;13.462;2023-04-15T08:41:24;100426.66;;;12.91
72236;BMP280;60146;52.498;13.462;2023-04-15T08:44:00;100426.31;;;13.05
72236;BMP280;60146;52.498;13.462;2023-04-15T08:46:31;100428.47;;;13.03
72236;BMP280;60146;52.498;13.462;2023-04-15T08:48:59;100434.16;;;12.97
72236;BMP280;60146;52.498;13.462;2023-04-15T08:51:25;100439.59;;;13.00
72236;BMP280;60146;52.498;13.462;2023-04-15T08:53:52;100436.47;;;12.98
72236;BMP280;60146;52.498;13.462;2023-04-15T08:56:17;100430.63;;;13.01
72236;BMP280;60146;52.498;13.462;2023-04-15T08:58:43;100433.13;;;13.06
72236;BMP280;60146;52.498;13.462;2023-04-15T09:01:10;100441.63;;;13.03
72236;BMP280;60146;52.498;13.462;2023-04-15T09:03:37;100428.38;;;13.17
72236;BMP280;60146;52.498;13.462;2023-04-15T09:06:06;100440.66;;;13.21
72236;BMP280;60146;52.498;13.462;2023-04-15T09:08:32;100427.97;;;13.23
72236;BMP280;60146;52.498;13.462;2023-04-15T09:11:00;100438.69;;;13.35
72236;BMP280;60146;52.498;13.462;2023-04-15T09:13:25;100431.84;;;13.25
72236;BMP280;60146;52.498;13.462;2023-04-15T09:15:51;100443.88;;;13.18
72236;BMP280;60146;52.498;13.462;2023-04-15T09:18:28;100434.41;;;13.17
72236;BMP280;60146;52.498;13.462;2023-04-15T09:20:55;100440.66;;;13.21
72236;BMP280;60146;52.498;13.462;2023-04-15T09:23:21;100448.88;;;13.28
72236;BMP280;60146;52.498;13.462;2023-04-15T09:25:47;100448.56;;;13.29
72236;BMP280;60146;52.498;13.462;2023-04-15T09:28:13;100453.38;;;13.27
72236;BMP280;60146;52.498;13.462;2023-04-15T09:30:41;100449.00;;;13.23
72236;BMP280;60146;52.498;13.462;2023-04-15T09:33:13;100460.03;;;13.25
72236;BMP280;60146;52.498;13.462;2023-04-15T09:35:38;100460.59;;;13.14
72236;BMP280;60146;52.498;13.462;2023-04-15T09:38:07;100457.97;;;13.22
72236;BMP280;60146;52.498;13.462;2023-04-15T09:40:38;100467.56;;;13.18
72236;BMP280;60146;52.498;13.462;2023-04-15T09:43:04;100468.50;;;13.22
72236;BMP280;60146;52.498;13.462;2023-04-15T09:45:31;100462.56;;;13.08
72236;BMP280;60146;52.498;13.462;2023-04-15T09:47:57;100467.44;;;13.01
72236;BMP280;60146;52.498;13.462;2023-04-15T09:50:26;100474.69;;;12.96
72236;BMP280;60146;52.498;13.462;2023-04-15T09:52:51;100462.66;;;12.82
72236;BMP280;60146;52.498;13.462;2023-04-15T09:55:17;100473.19;;;12.82
72236;BMP280;60146;52.498;13.462;2023-04-15T09:57:42;100473.19;;;12.82
72236;BMP280;60146;52.498;13.462;2023-04-15T10:00:14;100475.69;;;12.87
72236;BMP280;60146;52.498;13.462;2023-04-15T10:02:40;100485.41;;;12.78
72236;BMP280;60146;52.498;13.462;2023-04-15T10:05:08;100486.63;;;12.80
72236;BMP280;60146;52.498;13.462;2023-04-15T10:07:34;100486.22;;;12.87
72236;BMP280;60146;52.498;13.462;2023-04-15T10:10:00;100490.50;;;12.83
72236;BMP280;60146;52.498;13.462;2023-04-15T10:12:28;100487.03;;;12.74
72236;BMP280;60146;52.498;13.462;2023-04-15T10:15:02;100499.69;;;12.72
72236;BMP280;60146;52.498;13.462;2023-04-15T10:17:32;100502.63;;;12.84
72236;BMP280;60146;52.498;13.462;2023-04-15T10:20:03;100500.69;;;12.76
72236;BMP280;60146;52.498;13.462;2023-04-15T10:22:30;100506.09;;;12.79
72236;BMP280;60146;52.498;13.462;2023-04-15T10:24:56;100503.81;;;12.78
72236;BMP280;60146;52.498;13.462;2023-04-15T10:27:22;100505.94;;;12.97
72236;BMP280;60146;52.498;13.462;2023-04-15T10:29:50;100506.31;;;13.04
72236;BMP280;60146;52.498;13.462;2023-04-15T10:32:19;100500.16;;;13.09
72236;BMP280;60146;52.498;13.462;2023-04-15T10:34:46;100497.41;;;13.14
72236;BMP280;60146;52.498;13.462;2023-04-15T10:37:19;100506.44;;;13.21
72236;BMP280;60146;52.498;13.462;2023-04-15T10:39:45;100505.03;;;13.45
72236;BMP280;60146;52.498;13.462;2023-04-15T10:42:13;100504.63;;;13.51
72236;BMP280;60146;52.498;13.462;2023-04-15T10:44:44;100508.78;;;13.52
72236;BMP280;60146;52.498;13.462;2023-04-15T10:47:11;100506.63;;;13.54
72236;BMP280;60146;52.498;13.462;2023-04-15T10:49:48;100506.47;;;13.59
72236;BMP280;60146;52.498;13.462;2023-04-15T10:52:15;100511.16;;;13.62
72236;BMP280;60146;52.498;13.462;2023-04-15T10:54:41;100514.25;;;13.64
72236;BMP280;60146;52.498;13.462;2023-04-15T10:57:13;100518.31;;;13.70
72236;BMP280;60146;52.498;13.462;2023-04-15T11:05:17;100518.75;;;13.63
72236;BMP280;60146;52.498;13.462;2023-04-15T11:12:55;100531.88;;;13.55
72236;BMP280;60146;52.498;13.462;2023-04-15T11:15:39;100531.66;;;13.43
72236;BMP280;60146;52.498;13.462;2023-04-15T11:18:25;100525.75;;;13.38
72236;BMP280;60146;52.498;13.462;2023-04-15T11:20:53;100532.06;;;13.37
72236;BMP280;60146;52.498;13.462;2023-04-15T11:23:32;100529.63;;;13.40
72236;BMP280;60146;52.498;13.462;2023-04-15T11:25:59;100543.75;;;13.44
72236;BMP280;60146;52.498;13.462;2023-04-15T11:28:26;100532.34;;;13.27
72236;BMP280;60146;52.498;13.462;2023-04-15T11:30:52;100540.56;;;13.34
72236;BMP280;60146;52.498;13.462;2023-04-15T11:33:20;100551.28;;;13.37
72236;BMP280;60146;52.498;13.462;2023-04-15T11:35:46;100548.00;;;13.32
72236;BMP280;60146;52.498;13.462;2023-04-15T11:38:13;100560.25;;;13.37
72236;BMP280;60146;52.498;13.462;2023-04-15T11:40:40;100549.72;;;13.37
72236;BMP280;60146;52.498;13.462;2023-04-15T11:45:37;100566.00;;;13.38
72236;BMP280;60146;52.498;13.462;2023-04-15T11:48:09;100561.44;;;13.31
72236;BMP280;60146;52.498;13.462;2023-04-15T11:50:36;100572.16;;;13.34
72236;BMP280;60146;52.498;13.462;2023-04-15T11:53:05;100574.13;;;13.29
72236;BMP280;60146;52.498;13.462;2023-04-15T11:55:49;100579.38;;;13.29
72236;BMP280;60146;52.498;13.462;2023-04-15T11:58:23;100581.19;;;13.20
72236;BMP280;60146;52.498;13.462;2023-04-15T12:00:51;100580.00;;;13.26
72236;BMP280;60146;52.498;13.462;2023-04-15T12:03:25;100578.19;;;13.35
72236;BMP280;60146;52.498;13.462;2023-04-15T12:13:53;100583.09;;;13.28
72236;BMP280;60146;52.498;13.462;2023-04-15T12:16:19;100597.25;;;13.32
72236;BMP280;60146;52.498;13.462;2023-04-15T12:18:46;100590.66;;;13.42
72236;BMP280;60146;52.498;13.462;2023-04-15T12:21:12;100594.38;;;13.41
72236;BMP280;60146;52.498;13.462;2023-04-15T12:23:54;100598.19;;;13.57
72236;BMP280;60146;52.498;13.462;2023-04-15T12:26:33;100597.94;;;13.67
72236;BMP280;60146;52.498;13.462;2023-04-15T12:29:03;100596.88;;;13.76
72236;BMP280;60146;52.498;13.462;2023-04-15T12:31:28;100593.91;;;13.91
72236;BMP280;60146;52.498;13.462;2023-04-15T12:33:55;100597.16;;;13.96
72236;BMP280;60146;52.498;13.462;2023-04-15T12:36:21;100610.59;;;14.24
72236;BMP280;60146;52.498;13.462;2023-04-15T12:38:47;100610.19;;;14.39
72236;BMP280;60146;52.498;13.462;2023-04-15T12:41:13;100608.47;;;14.43
72236;BMP280;60146;52.498;13.462;2023-04-15T12:43:38;100607.31;;;14.57
72236;BMP280;60146;52.498;13.462;2023-04-15T12:46:03;100608.56;;;14.59
72236;BMP280;60146;52.498;13.462;2023-04-15T12:48:29;100605.44;;;14.57
72236;BMP280;60146;52.498;13.462;2023-04-15T12:50:55;100612.59;;;14.65
72236;BMP280;60146;52.498;13.462;2023-04-15T12:53:20;100603.59;;;14.66
72236;BMP280;60146;52.498;13.462;2023-04-15T12:55:45;100610.25;;;14.72
72236;BMP280;60146;52.498;13.462;2023-04-15T12:58:11;100615.22;;;14.65
72236;BMP280;60146;52.498;13.462;2023-04-15T13:00:36;100614.28;;;14.61
72236;BMP280;60146;52.498;13.462;2023-04-15T13:03:02;100616.63;;;14.63
72236;BMP280;60146;52.498;13.462;2023-04-15T13:05:28;100613.34;;;14.57
72236;BMP280;60146;52.498;13.462;2023-04-15T13:07:53;100622.81;;;14.58
72236;BMP280;60146;52.498;13.462;2023-04-15T13:10:18;100611.94;;;14.52
72236;BMP280;60146;52.498;13.462;2023-04-15T13:12:44;100624.28;;;14.43
72236;BMP280;60146;52.498;13.462;2023-04-15T13:15:11;100620.78;;;14.55
72236;BMP280;60146;52.498;13.462;2023-04-15T13:17:37;100622.03;;;14.58
72236;BMP280;60146;52.498;13.462;2023-04-15T13:20:02;100631.66;;;14.62
72236;BMP280;60146;52.498;13.462;2023-04-15T13:22:28;100631.06;;;14.65
72236;BMP280;60146;52.498;13.462;2023-04-15T13:24:54;100625.34;;;14.80
72236;BMP280;60146;52.498;13.462;2023-04-15T13:27:20;100634.69;;;14.86
72236;BMP280;60146;52.498;13.462;2023-04-15T13:29:46;100636.38;;;14.98
72236;BMP280;60146;52.498;13.462;2023-04-15T13:32:11;100635.75;;;15.10
72236;BMP280;60146;52.498;13.462;2023-04-15T13:34:37;100640.88;;;15.14
72236;BMP280;60146;52.498;13.462;2023-04-15T13:37:06;100637.16;;;15.24
72236;BMP280;60146;52.498;13.462;2023-04-15T13:39:32;100636.06;;;15.25
72236;BMP280;60146;52.498;13.462;2023-04-15T13:41:57;100642.00;;;15.22
72236;BMP280;60146;52.498;13.462;2023-04-15T13:44:23;100635.00;;;15.17
72236;BMP280;60146;52.498;13.462;2023-04-15T13:46:48;100640.09;;;15.14
72236;BMP280;60146;52.498;13.462;2023-04-15T13:49:13;100643.97;;;15.08
72236;BMP280;60146;52.498;13.462;2023-04-15T13:51:39;100651.13;;;14.99
72236;BMP280;60146;52.498;13.462;2023-04-15T13:54:04;100648.19;;;14.84
72236;BMP280;60146;52.498;13.462;2023-04-15T13:56:30;100652.03;;;14.78
72236;BMP280;60146;52.498;13.462;2023-04-15T13:58:55;100652.47;;;14.72
72236;BMP280;60146;52.498;13.462;2023-04-15T14:01:23;100657.28;;;14.70